createdAt,value
2019-01-19T00:02:04.427Z,97.03
2019-01-19T00:04:58.986Z,96.94
2019-01-19T00:07:49.472Z,97.20
2019-01-19T00:10:51.335Z,97.34
2019-01-19T00:13:57.486Z,96.89
2019-01-19T00:16:49.563Z,96.35
2019-01-19T00:20:17.671Z,95.80
2019-01-19T00:23:08.073Z,95.55
2019-01-19T00:26:14.235Z,94.60
2019-01-19T00:28:51.987Z,94.75
2019-01-19T00:31:39.466Z,95.33
2019-01-19T00:35:01.718Z,95.50
2019-01-19T00:37:53.376Z,96.31
2019-01-19T00:40:50.439Z,96.63
2019-01-19T00:43:40.163Z,96.86
2019-01-19T00:46:32.316Z,96.99
2019-01-19T00:49:23.962Z,96.80
2019-01-19T00:52:18.458Z,96.95
2019-01-19T00:55:08.825Z,96.81
2019-01-19T00:58:34.105Z,97.05
2019-01-19T01:01:31.741Z,95.96
2019-01-19T01:04:26.479Z,95.73
2019-01-19T01:07:21.800Z,95.93
2019-01-19T01:10:15.916Z,95.95
2019-01-19T01:12:55.220Z,96.03
2019-01-19T01:15:58.023Z,95.90
2019-01-19T01:19:05.396Z,95.79
2019-01-19T01:21:56.928Z,96.09
2019-01-19T01:25:04.203Z,96.25
2019-01-19T01:28:16.455Z,96.48
2019-01-19T01:31:13.752Z,96.76
2019-01-19T01:34:18.472Z,96.81
2019-01-19T01:37:19.368Z,96.98
2019-01-19T01:40:43.860Z,97.05
2019-01-19T01:43:42.643Z,96.67
2019-01-19T01:47:01.572Z,96.86
2019-01-19T01:49:42.572Z,96.53
2019-01-19T01:52:38.899Z,96.02
2019-01-19T01:55:34.736Z,95.95
2019-01-19T01:58:14.743Z,96.11
2019-01-19T02:00:58.539Z,96.15
2019-01-19T02:04:11.245Z,96.27
2019-01-19T02:07:36.720Z,96.15
2019-01-19T02:10:29.192Z,96.41
2019-01-19T02:13:35.590Z,96.91
2019-01-19T02:16:44.902Z,96.97
2019-01-19T02:19:53.583Z,96.95
2019-01-19T02:22:38.921Z,96.92
2019-01-19T02:25:55.494Z,97.09
2019-01-19T02:28:46.579Z,97.20
2019-01-19T02:31:44.406Z,97.31
2019-01-19T02:34:53.844Z,97.39
2019-01-19T02:37:48.748Z,97.38
2019-01-19T02:41:13.214Z,97.32
2019-01-19T02:44:00.741Z,97.44
2019-01-19T02:47:02.291Z,97.51
2019-01-19T02:50:00.282Z,97.63
2019-01-19T02:52:58.246Z,97.70
2019-01-19T02:55:58.318Z,97.72
2019-01-19T02:59:08.695Z,97.49
2019-01-19T03:02:14.285Z,97.16
2019-01-19T03:05:00.174Z,97.00
2019-01-19T03:07:42.322Z,96.71
2019-01-19T03:10:50.858Z,96.32
2019-01-19T03:13:47.551Z,96.01
2019-01-19T03:16:38.859Z,95.56
2019-01-19T03:19:39.363Z,95.18
2019-01-19T03:23:04.724Z,95.27
2019-01-19T03:26:00.206Z,95.58
2019-01-19T03:29:13.701Z,95.85
2019-01-19T03:32:17.604Z,96.16
2019-01-19T03:35:15.614Z,96.50
2019-01-19T03:38:28.264Z,96.59
2019-01-19T03:41:44.910Z,96.34
2019-01-19T03:44:33.837Z,96.33
2019-01-19T03:47:59.087Z,96.17
2019-01-19T03:50:59.263Z,96.35
2019-01-19T03:53:55.237Z,95.94
2019-01-19T03:56:56.522Z,95.09
2019-01-19T04:00:02.827Z,95.01
2019-01-19T04:02:42.934Z,95.14
2019-01-19T04:05:58.332Z,95.22
2019-01-19T04:09:02.374Z,95.66
2019-01-19T04:12:21.722Z,95.64
2019-01-19T04:15:21.128Z,95.66
2019-01-19T04:18:20.600Z,96.13
2019-01-19T04:21:16.114Z,95.88
2019-01-19T04:23:49.559Z,95.81
2019-01-19T04:26:33.078Z,95.82
2019-01-19T04:29:02.102Z,96.27
2019-01-19T04:31:31.259Z,96.53
2019-01-19T04:33:59.958Z,96.99
2019-01-19T04:36:29.498Z,96.78
2019-01-19T04:38:58.288Z,96.72
2019-01-19T04:41:27.055Z,96.42
2019-01-19T04:43:55.741Z,95.45
2019-01-19T04:46:24.506Z,94.85
2019-01-19T04:48:53.579Z,94.58
2019-01-19T04:51:22.263Z,94.92
2019-01-19T04:53:51.350Z,95.11
2019-01-19T04:56:20.109Z,95.09
2019-01-19T04:58:48.812Z,95.54
2019-01-19T05:01:17.573Z,96.29
2019-01-19T05:03:46.375Z,96.63
2019-01-19T05:06:15.130Z,96.28
2019-01-19T05:08:43.870Z,96.26
2019-01-19T05:11:12.868Z,96.29
2019-01-19T05:13:41.557Z,96.12
2019-01-19T05:16:10.342Z,96.14
2019-01-19T05:18:39.031Z,96.14
2019-01-19T05:21:07.954Z,95.89
2019-01-19T05:23:37.314Z,95.65
2019-01-19T05:26:06.115Z,95.64
2019-01-19T05:28:34.886Z,95.65
2019-01-19T05:31:03.659Z,95.59
2019-01-19T05:33:32.428Z,96.01
2019-01-19T05:36:01.463Z,95.91
2019-01-19T05:38:30.205Z,95.84
2019-01-19T05:40:58.831Z,95.60
2019-01-19T05:43:27.627Z,95.49
2019-01-19T05:45:56.383Z,95.06
2019-01-19T05:48:25.144Z,95.41
2019-01-19T05:50:54.135Z,96.84
2019-01-19T05:53:22.898Z,97.33
2019-01-19T05:55:51.687Z,97.17
2019-01-19T05:58:20.370Z,97.13
2019-01-19T06:00:49.611Z,96.34
2019-01-19T06:03:18.312Z,95.71
2019-01-19T06:05:47.342Z,95.42
2019-01-19T06:08:16.131Z,95.29
2019-01-19T06:10:44.866Z,95.26
2019-01-19T06:13:13.564Z,95.02
2019-01-19T06:15:42.335Z,94.91
2019-01-19T06:18:11.185Z,94.82
2019-01-19T06:20:39.959Z,95.27
2019-01-19T06:23:08.735Z,95.80
2019-01-19T06:25:38.752Z,95.95
2019-01-19T06:28:07.515Z,95.90
2019-01-19T06:30:36.622Z,96.17
2019-01-19T06:33:05.837Z,96.31
2019-01-19T06:35:34.596Z,96.36
2019-01-19T06:38:03.366Z,96.23
2019-01-19T06:40:32.128Z,95.56
2019-01-19T06:43:00.887Z,95.61
2019-01-19T06:45:30.106Z,95.59
2019-01-19T06:47:59.067Z,94.88
2019-01-19T06:50:27.743Z,95.15
2019-01-19T06:52:56.441Z,95.12
2019-01-19T06:55:31.039Z,95.34
2019-01-19T06:58:00.100Z,95.93
2019-01-19T07:00:28.843Z,96.04
2019-01-19T07:02:57.607Z,96.45
2019-01-19T07:05:26.469Z,96.37
2019-01-19T07:07:55.612Z,95.82
2019-01-19T07:10:25.538Z,95.61
2019-01-19T07:12:54.298Z,96.01
2019-01-19T07:15:23.059Z,96.11
2019-01-19T07:17:52.196Z,95.86
2019-01-19T07:20:23.552Z,95.53
2019-01-19T07:22:52.244Z,95.22
2019-01-19T07:25:23.654Z,95.54
2019-01-19T07:27:52.510Z,95.95
2019-01-19T07:30:21.288Z,96.17
2019-01-19T07:32:50.194Z,96.11
2019-01-19T07:35:18.907Z,96.18
2019-01-19T07:37:47.676Z,96.48
2019-01-19T07:40:17.218Z,96.66
2019-01-19T07:42:46.736Z,96.76
2019-01-19T07:45:16.898Z,96.60
2019-01-19T07:47:45.934Z,96.55
2019-01-19T07:50:16.383Z,96.40
2019-01-19T07:52:45.419Z,96.34
2019-01-19T07:55:15.592Z,96.42
2019-01-19T07:57:44.456Z,96.47
2019-01-19T08:00:16.247Z,96.46
2019-01-19T08:02:45.122Z,96.50
2019-01-19T08:05:13.977Z,96.50
2019-01-19T08:07:42.987Z,96.50
2019-01-19T08:10:13.474Z,96.32
2019-01-19T08:12:43.894Z,96.24
2019-01-19T08:15:17.885Z,96.23
2019-01-19T08:17:46.664Z,96.14
2019-01-19T08:20:15.560Z,96.11
2019-01-19T08:22:44.443Z,96.22
2019-01-19T08:25:13.511Z,97.74
2019-01-19T08:27:43.119Z,98.00
2019-01-19T08:30:23.400Z,98.26
2019-01-19T08:32:52.846Z,97.86
2019-01-19T08:35:23.935Z,98.21
2019-01-19T08:37:52.752Z,98.41
2019-01-19T08:40:25.096Z,98.16
2019-01-19T08:43:10.042Z,97.69
2019-01-19T08:45:39.292Z,97.67
2019-01-19T08:48:09.384Z,94.35
2019-01-19T08:50:40.139Z,95.12
2019-01-19T08:53:10.949Z,93.65
2019-01-19T08:55:40.651Z,93.34
2019-01-19T08:58:10.983Z,93.72
2019-01-19T09:00:41.763Z,91.09
2019-01-19T09:03:11.507Z,91.28
2019-01-19T09:05:41.675Z,90.79
2019-01-19T09:08:11.880Z,90.78
2019-01-19T09:10:40.663Z,89.44
2019-01-19T09:13:09.521Z,86.86
2019-01-19T09:15:38.287Z,84.35
2019-01-19T09:18:07.048Z,82.06
2019-01-19T09:20:35.813Z,79.29
2019-01-19T09:23:10.665Z,78.71
2019-01-19T09:25:39.450Z,80.90
2019-01-19T09:28:08.223Z,81.61
2019-01-19T09:30:36.928Z,82.70
2019-01-19T09:33:05.809Z,84.46
2019-01-19T09:35:34.703Z,84.53
2019-01-19T09:38:04.290Z,84.29
2019-01-19T09:40:33.403Z,83.74
2019-01-19T09:43:02.176Z,83.65
2019-01-19T09:45:32.572Z,81.90
2019-01-19T09:48:03.193Z,80.33
2019-01-19T09:50:33.289Z,78.85
2019-01-19T09:53:02.503Z,78.75
2019-01-19T09:55:33.698Z,77.00
2019-01-19T09:58:02.930Z,76.19
2019-01-19T10:00:36.636Z,74.97
2019-01-19T10:03:03.032Z,74.97
2019-01-19T10:05:33.601Z,72.10
2019-01-19T10:08:02.449Z,68.81
2019-01-19T10:10:31.237Z,67.46
2019-01-19T10:13:00.022Z,66.89
2019-01-19T10:15:30.259Z,67.70
2019-01-19T10:17:59.429Z,69.82
2019-01-19T10:20:30.040Z,69.83
2019-01-19T10:22:58.902Z,68.24
2019-01-19T10:25:29.199Z,68.38
2019-01-19T10:27:59.333Z,70.85
2019-01-19T10:30:30.754Z,69.53
2019-01-19T10:32:59.750Z,72.10
2019-01-19T10:35:29.667Z,72.03
2019-01-19T10:37:59.238Z,70.96
2019-01-19T10:40:29.102Z,69.46
2019-01-19T10:42:58.955Z,69.18
2019-01-19T10:45:27.720Z,67.54
2019-01-19T10:47:56.498Z,67.69
2019-01-19T10:50:25.246Z,69.49
2019-01-19T10:52:54.102Z,66.92
2019-01-19T10:55:23.061Z,66.71
2019-01-19T10:57:51.873Z,68.51
2019-01-19T11:00:23.246Z,71.52
2019-01-19T11:02:51.995Z,68.25
2019-01-19T11:05:20.781Z,69.82
2019-01-19T11:07:49.726Z,66.41
2019-01-19T11:10:20.635Z,66.77
2019-01-19T11:12:49.406Z,66.08
2019-01-19T11:15:18.257Z,66.97
2019-01-19T11:17:47.127Z,67.14
2019-01-19T11:20:34.158Z,67.65
2019-01-19T11:23:03.039Z,66.90
2019-01-19T11:25:31.810Z,67.79
2019-01-19T11:28:00.655Z,67.04
2019-01-19T11:30:30.733Z,67.74
2019-01-19T11:32:59.583Z,67.28
2019-01-19T11:35:28.452Z,67.43
2019-01-19T11:37:57.279Z,68.26
2019-01-19T11:40:31.830Z,71.56
2019-01-19T11:43:00.583Z,68.50
2019-01-19T11:45:29.343Z,66.97
2019-01-19T11:47:58.195Z,67.04
2019-01-19T11:50:27.026Z,68.38
2019-01-19T11:52:55.776Z,68.24
2019-01-19T11:55:24.718Z,70.58
2019-01-19T11:57:55.790Z,69.83
2019-01-19T12:00:26.731Z,68.49
2019-01-19T12:02:55.543Z,68.49
2019-01-19T12:05:24.373Z,68.23
2019-01-19T12:07:53.127Z,67.49
2019-01-19T12:10:24.023Z,65.04
2019-01-19T12:12:53.068Z,65.04
2019-01-19T12:15:21.902Z,66.25
2019-01-19T12:17:50.736Z,66.26
2019-01-19T12:20:39.791Z,67.81
2019-01-19T12:23:09.076Z,64.49
2019-01-19T12:25:37.878Z,60.97
2019-01-19T12:28:06.818Z,60.33
2019-01-19T12:30:35.687Z,58.50
2019-01-19T12:33:06.156Z,60.03
2019-01-19T12:35:35.100Z,59.66
2019-01-19T12:38:03.940Z,62.21
2019-01-19T12:40:32.767Z,63.97
2019-01-19T12:43:04.661Z,64.64
2019-01-19T12:45:37.087Z,65.06
2019-01-19T12:48:05.842Z,63.82
2019-01-19T12:50:34.947Z,66.10
2019-01-19T12:53:03.799Z,67.88
2019-01-19T12:55:32.568Z,65.79
2019-01-19T12:58:01.607Z,66.20
2019-01-19T13:00:30.440Z,67.10
2019-01-19T13:02:59.207Z,66.51
2019-01-19T13:05:40.095Z,67.01
2019-01-19T13:08:11.183Z,67.26
2019-01-19T13:10:47.499Z,66.00
2019-01-19T13:13:19.742Z,66.98
2019-01-19T13:16:37.905Z,66.52
2019-01-19T13:19:34.103Z,67.00
2019-01-19T13:22:36.106Z,69.22
2019-01-19T13:25:41.835Z,69.51
2019-01-19T13:28:53.952Z,68.15
2019-01-19T13:32:00.302Z,68.40
2019-01-19T13:35:00.262Z,68.77
2019-01-19T13:38:11.007Z,66.48
2019-01-19T13:41:22.945Z,67.79
2019-01-19T13:44:16.489Z,67.03
2019-01-19T13:47:30.849Z,67.72
2019-01-19T13:50:49.271Z,66.08
2019-01-19T13:53:57.870Z,64.80
2019-01-19T13:56:42.767Z,64.96
2019-01-19T13:59:50.023Z,65.00
2019-01-19T14:02:55.773Z,64.62
2019-01-19T14:06:17.082Z,63.63
2019-01-19T14:09:14.276Z,63.63
2019-01-19T14:12:36.718Z,64.11
2019-01-19T14:15:41.859Z,63.18
2019-01-19T14:18:35.787Z,63.56
2019-01-19T14:21:34.420Z,63.27
2019-01-19T14:24:40.477Z,66.42
2019-01-19T14:27:46.531Z,65.04
2019-01-19T14:30:24.691Z,66.82
2019-01-19T14:33:30.216Z,65.63
2019-01-19T14:36:48.233Z,65.18
2019-01-19T14:39:41.187Z,65.23
2019-01-19T14:42:54.619Z,65.33
2019-01-19T14:46:16.938Z,62.51
2019-01-19T14:48:59.916Z,65.53
2019-01-19T14:51:49.577Z,62.51
2019-01-19T14:55:02.619Z,63.79
2019-01-19T14:57:47.231Z,64.80
2019-01-19T15:00:53.728Z,64.51
2019-01-19T15:03:35.383Z,63.21
2019-01-19T15:06:32.272Z,64.30
2019-01-19T15:09:39.835Z,64.19
2019-01-19T15:13:02.142Z,63.44
2019-01-19T15:16:17.820Z,64.82
2019-01-19T15:19:17.388Z,63.72
2019-01-19T15:22:48.543Z,65.35
2019-01-19T15:26:10.503Z,64.53
2019-01-19T15:29:02.402Z,63.70
2019-01-19T15:32:05.171Z,65.54
2019-01-19T15:34:53.847Z,65.39
2019-01-19T15:38:10.303Z,64.81
2019-01-19T15:41:10.675Z,65.26
2019-01-19T15:44:20.851Z,66.36
2019-01-19T15:47:49.125Z,67.57
2019-01-19T15:51:21.606Z,66.74
2019-01-19T15:54:16.495Z,68.70
2019-01-19T15:56:58.524Z,70.83
2019-01-19T15:59:56.517Z,71.11
2019-01-19T16:02:56.115Z,71.36
2019-01-19T16:06:40.042Z,72.21
2019-01-19T16:09:54.006Z,73.39
2019-01-19T16:13:00.140Z,73.81
2019-01-19T16:16:03.051Z,75.17
2019-01-19T16:19:00.366Z,75.51
2019-01-19T16:21:56.643Z,75.64
2019-01-19T16:25:20.901Z,77.54
2019-01-19T16:28:49.248Z,77.16
2019-01-19T16:31:30.071Z,77.33
2019-01-19T16:34:39.426Z,77.73
2019-01-19T16:37:46.952Z,77.01
2019-01-19T16:40:50.318Z,76.76
2019-01-19T16:43:49.620Z,79.26
2019-01-19T16:46:52.100Z,81.95
2019-01-19T16:49:31.612Z,83.45
2019-01-19T16:52:39.247Z,83.21
2019-01-19T16:55:46.319Z,82.52
2019-01-19T16:58:55.335Z,81.81
2019-01-19T17:02:03.778Z,82.23
2019-01-19T17:05:11.345Z,83.10
2019-01-19T17:08:03.858Z,83.67
2019-01-19T17:10:47.556Z,84.30
2019-01-19T17:13:32.083Z,84.55
2019-01-19T17:16:21.271Z,85.65
2019-01-19T17:19:11.752Z,86.10
2019-01-19T17:22:26.751Z,86.28
2019-01-19T17:25:37.219Z,86.11
2019-01-19T17:28:50.022Z,86.65
2019-01-19T17:31:33.309Z,86.02
2019-01-19T17:34:51.345Z,86.30
2019-01-19T17:37:44.015Z,86.30
2019-01-19T17:40:49.964Z,86.23
2019-01-19T17:43:48.348Z,86.56
2019-01-19T17:47:16.837Z,86.58
2019-01-19T17:50:19.427Z,87.11
2019-01-19T17:53:27.347Z,89.08
2019-01-19T17:56:45.979Z,90.07
2019-01-19T18:00:02.696Z,89.41
2019-01-19T18:03:08.640Z,88.93
2019-01-19T18:06:04.350Z,88.18
2019-01-19T18:08:47.728Z,87.40
2019-01-19T18:11:47.396Z,88.12
2019-01-19T18:15:04.979Z,88.69
2019-01-19T18:17:59.156Z,89.30
2019-01-19T18:20:47.572Z,90.01
2019-01-19T18:23:48.639Z,90.22
2019-01-19T18:26:58.793Z,90.47
2019-01-19T18:30:13.925Z,90.25
2019-01-19T18:33:11.204Z,90.13
2019-01-19T18:36:06.448Z,89.80
2019-01-19T18:39:02.045Z,90.17
2019-01-19T18:42:13.983Z,90.56
2019-01-19T18:45:07.088Z,90.79
2019-01-19T18:48:00.192Z,90.94
2019-01-19T18:51:23.349Z,91.04
2019-01-19T18:54:01.760Z,90.60
2019-01-19T18:57:19.551Z,91.46
2019-01-19T19:00:13.293Z,91.52
2019-01-19T19:03:20.404Z,91.68
2019-01-19T19:06:18.737Z,91.93
2019-01-19T19:09:43.881Z,91.43
2019-01-19T19:12:34.811Z,91.85
2019-01-19T19:15:16.807Z,90.31
2019-01-19T19:18:32.555Z,90.50
2019-01-19T19:21:54.235Z,90.11
2019-01-19T19:24:49.871Z,90.54
2019-01-19T19:27:54.805Z,91.07
2019-01-19T19:31:00.757Z,91.52
2019-01-19T19:34:14.014Z,92.16
2019-01-19T19:36:53.840Z,91.96
2019-01-19T19:40:09.758Z,92.35
2019-01-19T19:43:23.324Z,92.40
2019-01-19T19:46:36.467Z,93.10
2019-01-19T19:49:43.156Z,92.49
2019-01-19T19:52:11.922Z,92.80
2019-01-19T19:54:50.303Z,92.09
2019-01-19T19:57:19.406Z,92.68
2019-01-19T19:59:48.159Z,92.56
2019-01-19T20:02:16.962Z,92.78
2019-01-19T20:04:45.722Z,92.62
2019-01-19T20:07:14.531Z,92.48
2019-01-19T20:09:44.026Z,91.79
2019-01-19T20:12:12.795Z,91.64
2019-01-19T20:14:41.564Z,91.61
2019-01-19T20:17:10.533Z,90.29
2019-01-19T20:19:39.379Z,92.92
2019-01-19T20:22:08.082Z,93.25
2019-01-19T20:24:36.940Z,93.72
2019-01-19T20:27:05.646Z,93.11
2019-01-19T20:29:34.438Z,92.80
2019-01-19T20:32:04.655Z,92.83
2019-01-19T20:34:33.424Z,92.75
2019-01-19T20:37:02.183Z,92.29
2019-01-19T20:39:30.968Z,92.45
2019-01-19T20:41:59.663Z,92.91
2019-01-19T20:44:28.921Z,92.65
2019-01-19T20:46:57.704Z,93.28
2019-01-19T20:49:26.468Z,92.96
2019-01-19T20:51:55.540Z,92.85
2019-01-19T20:54:24.259Z,93.00
2019-01-19T20:56:53.038Z,92.94
2019-01-19T20:59:21.726Z,92.68
2019-01-19T21:01:50.783Z,93.92
2019-01-19T21:04:19.555Z,94.46
2019-01-19T21:06:48.307Z,94.45
2019-01-19T21:09:17.023Z,93.84
2019-01-19T21:11:45.790Z,93.29
2019-01-19T21:14:14.473Z,93.19
2019-01-19T21:16:43.743Z,93.43
2019-01-19T21:19:12.438Z,93.29
2019-01-19T21:21:41.244Z,93.84
2019-01-19T21:24:09.960Z,94.08
2019-01-19T21:26:38.712Z,93.87
2019-01-19T21:29:07.400Z,94.39
2019-01-19T21:31:36.096Z,95.14
2019-01-19T21:34:04.863Z,95.35
2019-01-19T21:36:33.931Z,94.93
2019-01-19T21:39:03.147Z,94.63
2019-01-19T21:41:31.973Z,94.42
2019-01-19T21:44:01.111Z,94.34
2019-01-19T21:46:29.858Z,94.26
2019-01-19T21:48:58.626Z,94.98
2019-01-19T21:51:27.464Z,94.79
2019-01-19T21:53:56.218Z,94.78
2019-01-19T21:56:24.908Z,94.90
2019-01-19T21:58:53.759Z,94.84
2019-01-19T22:01:25.448Z,95.27
2019-01-19T22:03:54.542Z,95.91
2019-01-19T22:06:23.348Z,95.79
2019-01-19T22:08:52.109Z,95.45
2019-01-19T22:11:20.883Z,95.73
2019-01-19T22:13:49.612Z,95.34
2019-01-19T22:16:18.384Z,94.69
2019-01-19T22:18:47.428Z,94.52
2019-01-19T22:21:16.224Z,94.65
2019-01-19T22:23:45.323Z,94.97
2019-01-19T22:26:15.825Z,95.36
2019-01-19T22:28:44.615Z,95.29
2019-01-19T22:31:13.387Z,95.54
2019-01-19T22:33:42.287Z,95.83
2019-01-19T22:36:11.051Z,95.75
2019-01-19T22:38:39.821Z,95.18
2019-01-19T22:41:08.626Z,95.68
2019-01-19T22:43:37.415Z,95.97
2019-01-19T22:46:06.155Z,95.67
2019-01-19T22:48:34.976Z,95.81
2019-01-19T22:51:11.045Z,95.88
2019-01-19T22:53:34.313Z,96.12
2019-01-19T22:56:03.443Z,96.03
2019-01-19T22:58:32.134Z,95.85
2019-01-19T23:01:27.094Z,95.88
2019-01-19T23:03:55.891Z,95.67
2019-01-19T23:06:24.575Z,95.10
2019-01-19T23:08:53.261Z,94.63
2019-01-19T23:11:22.064Z,94.92
2019-01-19T23:13:50.840Z,95.28
2019-01-19T23:16:19.591Z,95.46
2019-01-19T23:18:48.356Z,95.55
2019-01-19T23:21:17.158Z,95.99
2019-01-19T23:23:46.586Z,96.54
2019-01-19T23:26:15.735Z,96.59
2019-01-19T23:28:44.483Z,96.55
2019-01-19T23:31:13.274Z,96.10
2019-01-19T23:33:41.956Z,95.63
2019-01-19T23:36:10.779Z,95.67
2019-01-19T23:38:39.552Z,95.87
2019-01-19T23:41:09.247Z,95.23
2019-01-19T23:43:38.181Z,95.23
2019-01-19T23:46:07.001Z,95.22
2019-01-19T23:48:35.762Z,95.17
2019-01-19T23:51:04.767Z,96.04
2019-01-19T23:53:33.457Z,95.69
2019-01-19T23:56:02.223Z,95.71
2019-01-19T23:58:30.939Z,95.98
